Weather reports worldwide

Advertisment
Manchester/Intl, United Kingdom (3334): temperature & dewpoint: 16.02.2019 01:00:00 - 22.02.2019 01:00:00 (GMT)Manchester/Intl, United Kingdom (3334): wind speed: 16.02.2019 01:00:00 - 22.02.2019 01:00:00 (GMT)Manchester/Intl, United Kingdom (3334): wind direction: 16.02.2019 01:00:00 - 22.02.2019 01:00:00 (GMT)Manchester/Intl, United Kingdom (3334): visibility: 16.02.2019 01:00:00 - 22.02.2019 01:00:00 (GMT)
Date & Time tt [°C] td [°C] ff [km/h] ff [kn] dd vv [km]
22.02.2019 01:00:00 8,0 6,0 4 2 - 10
22.02.2019 00:00:00 9,0 6,0 5 3 - 10
21.02.2019 23:00:00 9,0 6,0 5 3 - 10
21.02.2019 22:00:00 9,0 6,0 4 2 - 10
21.02.2019 21:00:00 8,0 6,0 5 3 - 10
21.02.2019 20:00:00 10,0 6,0 4 2 SE 10
21.02.2019 19:00:00 10,0 7,0 5 3 SSE 10
21.02.2019 18:00:00 11,0 7,0 8 4 S 10
21.02.2019 17:00:00 13,0 7,0 9 5 SW 10
21.02.2019 16:00:00 14,0 7,0 15 8 SW 10
21.02.2019 15:00:00 14,0 8,0 9 5 SSW 10
21.02.2019 14:00:00 14,0 8,0 13 7 SSW 10
21.02.2019 13:00:00 14,0 8,0 13 7 SW 10
21.02.2019 12:00:00 13,0 8,0 11 6 SSW 10
21.02.2019 11:00:00 13,0 9,0 15 8 SSW 10
21.02.2019 10:00:00 12,0 9,0 11 6 SSW 10
21.02.2019 09:00:00 11,0 9,0 13 7 S 10
21.02.2019 08:00:00 10,0 8,0 9 5 S 10
21.02.2019 07:00:00 10,0 8,0 11 6 S 10
21.02.2019 06:00:00 10,0 7,0 9 5 S 10
21.02.2019 05:00:00 10,0 7,0 11 6 S 10
21.02.2019 04:00:00 9,0 7,0 8 4 S 10
21.02.2019 03:00:00 10,0 7,0 13 7 S 4,6
21.02.2019 02:00:00 10,0 7,0 9 5 S 10
21.02.2019 01:00:00 10,0 7,0 9 5 SSE 10
21.02.2019 00:00:00 10,0 7,0 11 6 S 10
20.02.2019 23:00:00 9,0 7,0 11 6 S 10
20.02.2019 22:00:00 10,0 6,0 11 6 S 10
20.02.2019 21:00:00 10,0 6,0 8 4 SSW 10
20.02.2019 20:00:00 10,0 6,0 11 6 S 10
20.02.2019 19:00:00 10,0 6,0 13 7 S 10
20.02.2019 18:00:00 10,0 6,0 11 6 S 10
20.02.2019 17:00:00 10,0 6,0 9 5 S 10
20.02.2019 16:00:00 10,0 7,0 11 6 S 10
20.02.2019 15:00:00 10,0 7,0 11 6 S 9
20.02.2019 14:00:00 11,0 6,0 16 9 SSW 10
20.02.2019 13:00:00 11,0 6,0 13 7 SSW 10
20.02.2019 12:00:00 10,0 6,0 13 7 S 10
20.02.2019 11:00:00 9,0 5,0 9 5 S 10
20.02.2019 10:00:00 9,0 5,0 13 7 S 10
20.02.2019 09:00:00 8,0 5,0 11 6 S 10
20.02.2019 08:00:00 8,0 5,0 11 6 S 10
20.02.2019 07:00:00 8,0 5,0 11 6 S 10
20.02.2019 06:00:00 8,0 5,0 15 8 S 10
20.02.2019 05:00:00 8,0 5,0 13 7 S 10
20.02.2019 04:00:00 8,0 5,0 11 6 S 10
20.02.2019 03:00:00 7,0 4,0 13 7 S 10
20.02.2019 02:00:00 7,0 4,0 13 7 S 10
20.02.2019 01:00:00 7,0 4,0 13 7 S 10
20.02.2019 00:00:00 7,0 4,0 15 8 S 10
19.02.2019 23:00:00 7,0 4,0 13 7 S 10
19.02.2019 22:00:00 7,0 4,0 13 7 S 10
19.02.2019 21:00:00 8,0 4,0 11 6 S 10
19.02.2019 20:00:00 8,0 3,0 11 6 S 10
19.02.2019 19:00:00 8,0 3,0 11 6 S 10
19.02.2019 18:00:00 8,0 3,0 11 6 S 10
19.02.2019 17:00:00 9,0 2,0 11 6 SSW 10
19.02.2019 16:00:00 9,0 2,0 11 6 SSW 10
19.02.2019 15:00:00 9,0 2,0 13 7 SSW 10
19.02.2019 14:00:00 9,0 3,0 18 10 SW 10
19.02.2019 13:00:00 8,0 3,0 16 9 SW 10
19.02.2019 12:00:00 8,0 3,0 11 6 SSW 10
19.02.2019 11:00:00 7,0 3,0 9 5 SSW 10
19.02.2019 10:00:00 7,0 2,0 13 7 SSW 10
19.02.2019 09:00:00 6,0 2,0 9 5 SSW 10
19.02.2019 08:00:00 6,0 3,0 13 7 SW 10
19.02.2019 07:00:00 7,0 3,0 11 6 SW 10
19.02.2019 06:00:00 7,0 4,0 13 7 SW 10
19.02.2019 05:00:00 7,0 4,0 8 4 SW 10
19.02.2019 04:00:00 7,0 4,0 13 7 WSW 10
19.02.2019 03:00:00 7,0 4,0 16 9 WSW 10
19.02.2019 02:00:00 8,0 4,0 16 9 WSW 10
19.02.2019 01:00:00 8,0 4,0 15 8 SW 10
19.02.2019 00:00:00 7,0 3,0 16 9 SW 10
18.02.2019 23:00:00 7,0 3,0 16 9 SW 10
18.02.2019 22:00:00 8,0 3,0 15 8 SSW 10
18.02.2019 21:00:00 7,0 3,0 15 8 SSW 10
18.02.2019 20:00:00 7,0 3,0 15 8 SSW 10
18.02.2019 19:00:00 8,0 2,0 8 4 SSW 10
18.02.2019 18:00:00 8,0 2,0 13 7 SSW 10
18.02.2019 17:00:00 9,0 3,0 15 8 SSW 10
18.02.2019 16:00:00 9,0 2,0 28 15 WSW 10
18.02.2019 15:00:00 10,0 2,0 18 10 SW 10
18.02.2019 14:00:00 10,0 2,0 16 9 SSW 10
18.02.2019 13:00:00 10,0 2,0 22 12 SW 10
18.02.2019 12:00:00 9,0 4,0 21 11 SW 10
18.02.2019 11:00:00 9,0 4,0 16 9 SSW 10
18.02.2019 10:00:00 8,0 4,0 15 8 SSW 10
18.02.2019 09:00:00 8,0 4,0 13 7 S 10
18.02.2019 08:00:00 8,0 4,0 15 8 S 10
18.02.2019 07:00:00 7,0 4,0 13 7 S 10
18.02.2019 06:00:00 7,0 4,0 15 8 S 10
18.02.2019 05:00:00 7,0 4,0 13 7 S 10
18.02.2019 04:00:00 8,0 5,0 13 7 S 10
18.02.2019 03:00:00 7,0 4,0 13 7 S 10
18.02.2019 02:00:00 8,0 4,0 9 5 S 10
18.02.2019 01:00:00 8,0 4,0 15 8 S 10
18.02.2019 00:00:00 9,0 3,0 15 8 S 10
17.02.2019 23:00:00 9,0 4,0 16 9 S 10
17.02.2019 22:00:00 9,0 2,0 13 7 S 10
17.02.2019 21:00:00 8,0 2,0 13 7 S 10
17.02.2019 20:00:00 8,0 1,0 13 7 S 10
17.02.2019 19:00:00 9,0 2,0 11 6 S 10
17.02.2019 18:00:00 10,0 3,0 16 9 SSW 10
17.02.2019 17:00:00 11,0 4,0 9 5 S 10
17.02.2019 16:00:00 12,0 4,0 18 10 SSW 10
17.02.2019 15:00:00 12,0 6,0 16 9 S 10
17.02.2019 14:00:00 12,0 6,0 18 10 SSW 10
17.02.2019 13:00:00 11,0 6,0 16 9 S 10
17.02.2019 12:00:00 12,0 5,0 18 10 S 10
17.02.2019 11:00:00 11,0 4,0 15 8 S 10
17.02.2019 10:00:00 10,0 4,0 15 8 S 10
17.02.2019 09:00:00 10,0 4,0 16 9 S 10
17.02.2019 08:00:00 9,0 4,0 15 8 SSE 10
17.02.2019 07:00:00 9,0 5,0 13 7 SSE 10
17.02.2019 06:00:00 9,0 6,0 15 8 SSE 10
17.02.2019 05:00:00 9,0 6,0 9 5 SSE 10
17.02.2019 04:00:00 9,0 6,0 13 7 SSE 10
17.02.2019 03:00:00 9,0 6,0 9 5 S 10
17.02.2019 02:00:00 10,0 6,0 13 7 S 10
17.02.2019 01:00:00 10,0 6,0 16 9 S 10
17.02.2019 00:00:00 10,0 7,0 15 8 S 10
16.02.2019 23:00:00 11,0 8,0 15 8 S 10
16.02.2019 22:00:00 12,0 8,0 11 6 S 10
16.02.2019 21:00:00 12,0 8,0 15 8 S 10
16.02.2019 20:00:00 12,0 8,0 11 6 S 10
16.02.2019 19:00:00 12,0 8,0 15 8 S 10
16.02.2019 18:00:00 12,0 6,0 13 7 S 10
16.02.2019 17:00:00 12,0 6,0 11 6 S 10
16.02.2019 16:00:00 12,0 5,0 15 8 S 10
16.02.2019 15:00:00 12,0 5,0 16 9 SSW 10
16.02.2019 14:00:00 12,0 4,0 18 10 SSW 10
16.02.2019 13:00:00 11,0 4,0 15 8 SSW 10
16.02.2019 12:00:00 11,0 5,0 15 8 SSW 10
16.02.2019 11:00:00 10,0 4,0 15 8 SSW 10
16.02.2019 10:00:00 10,0 5,0 11 6 S 10
16.02.2019 09:00:00 9,0 4,0 8 4 S 10
16.02.2019 08:00:00 8,0 4,0 9 5 S 10
16.02.2019 07:00:00 8,0 4,0 8 4 S 10
16.02.2019 06:00:00 7,0 4,0 8 4 S 10
16.02.2019 05:00:00 8,0 6,0 9 5 SSW 10
16.02.2019 04:00:00 9,0 6,0 11 6 S 10
16.02.2019 03:00:00 9,0 6,0 9 5 S 10
16.02.2019 02:00:00 10,0 5,0 13 7 S 10
16.02.2019 01:00:00 10,0 5,0 13 7 S 10

tt = temperature
td = dewpoint
ff = wind speed
dd = wind direction
vv = visibility

Next stations